sensor_id;sensor_type;location;lat;lon;timestamp;pressure;altitude;pressure_sealevel;temperature;humidity
78843;BME280;70542;53.774;-0.352;2024-03-17T00:06:20;101630;;;12.999;48
78843;BME280;70542;53.774;-0.352;2024-03-17T00:12:33;101620;;;12.863;48
78843;BME280;70542;53.774;-0.352;2024-03-17T00:18:53;101610;;;13.015;48
78843;BME280;70542;53.774;-0.352;2024-03-17T00:25:27;101620;;;13.408;48
78843;BME280;70542;53.774;-0.352;2024-03-17T00:31:59;101620;;;13.639;47
78843;BME280;70542;53.774;-0.352;2024-03-17T00:37:56;101610;;;14.06;46
78843;BME280;70542;53.774;-0.352;2024-03-17T00:44:07;101590;;;13.527;47
78843;BME280;70542;53.774;-0.352;2024-03-17T00:50:06;101580;;;12.234;50
78843;BME280;70542;53.774;-0.352;2024-03-17T00:56:12;101580;;;12.283;49
78843;BME280;70542;53.774;-0.352;2024-03-17T01:02:26;101580;;;12.185;50
78843;BME280;70542;53.774;-0.352;2024-03-17T01:08:54;101560;;;12.558;49
78843;BME280;70542;53.774;-0.352;2024-03-17T01:15:04;101580;;;13.859;47
78843;BME280;70542;53.774;-0.352;2024-03-17T01:21:17;101560;;;13.316;48
78843;BME280;70542;53.774;-0.352;2024-03-17T01:27:37;101560;;;13.856;47
78843;BME280;70542;53.774;-0.352;2024-03-17T01:33:49;101560;;;12.709;49
78843;BME280;70542;53.774;-0.352;2024-03-17T01:40:11;101540;;;13.333;48
78843;BME280;70542;53.774;-0.352;2024-03-17T01:46:17;101530;;;13.465;48
78843;BME280;70542;53.774;-0.352;2024-03-17T01:52:14;101520;;;13.364;48
78843;BME280;70542;53.774;-0.352;2024-03-17T01:58:35;101510;;;12.547;50
78843;BME280;70542;53.774;-0.352;2024-03-17T02:04:40;101500;;;12.947;50
78843;BME280;70542;53.774;-0.352;2024-03-17T02:11:03;101500;;;13.434;48
78843;BME280;70542;53.774;-0.352;2024-03-17T02:17:19;101510;;;13.737;48
78843;BME280;70542;53.774;-0.352;2024-03-17T02:23:39;101500;;;13.349;49
78843;BME280;70542;53.774;-0.352;2024-03-17T02:29:45;101490;;;12.799;50
78843;BME280;70542;53.774;-0.352;2024-03-17T02:35:49;101490;;;13.889;49
78843;BME280;70542;53.774;-0.352;2024-03-17T02:42:02;101480;;;12.862;51
78843;BME280;70542;53.774;-0.352;2024-03-17T02:48:11;101480;;;12.758;50
78843;BME280;70542;53.774;-0.352;2024-03-17T02:54:21;101470;;;13.272;49
78843;BME280;70542;53.774;-0.352;2024-03-17T03:00:33;101460;;;13.378;49
78843;BME280;70542;53.774;-0.352;2024-03-17T03:06:35;101450;;;13.15;49
78843;BME280;70542;53.774;-0.352;2024-03-17T03:12:44;101440;;;13.176;49
78843;BME280;70542;53.774;-0.352;2024-03-17T03:18:47;101430;;;13.3;49
78843;BME280;70542;53.774;-0.352;2024-03-17T03:24:53;101420;;;13.018;50
78843;BME280;70542;53.774;-0.352;2024-03-17T03:31:03;101420;;;12.205;50
78843;BME280;70542;53.774;-0.352;2024-03-17T03:37:00;101430;;;12.828;50
78843;BME280;70542;53.774;-0.352;2024-03-17T03:43:13;101410;;;13.279;50
78843;BME280;70542;53.774;-0.352;2024-03-17T03:49:32;101410;;;12.888;50
78843;BME280;70542;53.774;-0.352;2024-03-17T03:55:29;101420;;;13.655;48
78843;BME280;70542;53.774;-0.352;2024-03-17T04:01:46;101400;;;14.237;48
78843;BME280;70542;53.774;-0.352;2024-03-17T04:07:55;101410;;;13.771;49
78843;BME280;70542;53.774;-0.352;2024-03-17T04:14:08;101410;;;12.885;50
78843;BME280;70542;53.774;-0.352;2024-03-17T04:20:06;101410;;;14.156;48
78843;BME280;70542;53.774;-0.352;2024-03-17T04:26:04;101400;;;13.578;48
78843;BME280;70542;53.774;-0.352;2024-03-17T04:32:17;101390;;;14.155;47
78843;BME280;70542;53.774;-0.352;2024-03-17T04:38:14;101400;;;13.614;48
78843;BME280;70542;53.774;-0.352;2024-03-17T04:44:27;101390;;;13.868;48
78843;BME280;70542;53.774;-0.352;2024-03-17T04:50:36;101390;;;14.052;48
78843;BME280;70542;53.774;-0.352;2024-03-17T04:56:45;101380;;;13.574;49
78843;BME280;70542;53.774;-0.352;2024-03-17T05:02:57;101380;;;14.127;48
78843;BME280;70542;53.774;-0.352;2024-03-17T05:09:07;101380;;;14.624;47
78843;BME280;70542;53.774;-0.352;2024-03-17T05:15:21;101370;;;13.809;48
78843;BME280;70542;53.774;-0.352;2024-03-17T05:21:35;101370;;;13.09;50
78843;BME280;70542;53.774;-0.352;2024-03-17T05:27:44;101370;;;14.824;47
78843;BME280;70542;53.774;-0.352;2024-03-17T05:39:56;101360;;;14.771;47
78843;BME280;70542;53.774;-0.352;2024-03-17T05:46:09;101360;;;14.633;47
78843;BME280;70542;53.774;-0.352;2024-03-17T05:52:22;101360;;;15.169;46
78843;BME280;70542;53.774;-0.352;2024-03-17T05:58:35;101350;;;14.005;48
78843;BME280;70542;53.774;-0.352;2024-03-17T06:04:36;101340;;;14.553;47
78843;BME280;70542;53.774;-0.352;2024-03-17T06:10:49;101330;;;14.432;47
78843;BME280;70542;53.774;-0.352;2024-03-17T06:16:57;101330;;;14.58;47
78843;BME280;70542;53.774;-0.352;2024-03-17T06:22:54;101330;;;14.102;48
78843;BME280;70542;53.774;-0.352;2024-03-17T06:28:52;101320;;;14.823;46
78843;BME280;70542;53.774;-0.352;2024-03-17T06:34:54;101320;;;15.129;46
78843;BME280;70542;53.774;-0.352;2024-03-17T06:41:03;101320;;;13.845;48
78843;BME280;70542;53.774;-0.352;2024-03-17T06:47:07;101320;;;15.239;46
78843;BME280;70542;53.774;-0.352;2024-03-17T06:53:30;101320;;;14.112;49
78843;BME280;70542;53.774;-0.352;2024-03-17T06:59:35;101310;;;14.365;48
78843;BME280;70542;53.774;-0.352;2024-03-17T07:06:00;101320;;;14.367;48
78843;BME280;70542;53.774;-0.352;2024-03-17T07:12:20;101320;;;14.032;50
78843;BME280;70542;53.774;-0.352;2024-03-17T07:18:34;101320;;;14.27;49
78843;BME280;70542;53.774;-0.352;2024-03-17T07:24:43;101320;;;14.018;50
78843;BME280;70542;53.774;-0.352;2024-03-17T07:30:47;101320;;;13.786;50
78843;BME280;70542;53.774;-0.352;2024-03-17T07:37:01;101320;;;14.327;49
78843;BME280;70542;53.774;-0.352;2024-03-17T07:43:03;101310;;;14.32;50
78843;BME280;70542;53.774;-0.352;2024-03-17T07:49:12;101310;;;13.2;51
78843;BME280;70542;53.774;-0.352;2024-03-17T07:55:22;101310;;;14.384;49
78843;BME280;70542;53.774;-0.352;2024-03-17T08:01:36;101310;;;13.989;50
78843;BME280;70542;53.774;-0.352;2024-03-17T08:07:39;101300;;;14.297;49
78843;BME280;70542;53.774;-0.352;2024-03-17T08:13:42;101300;;;13.767;50
78843;BME280;70542;53.774;-0.352;2024-03-17T08:19:39;101300;;;14.028;51
78843;BME280;70542;53.774;-0.352;2024-03-17T08:25:52;101300;;;14.211;50
78843;BME280;70542;53.774;-0.352;2024-03-17T08:32:01;101300;;;14.771;49
78843;BME280;70542;53.774;-0.352;2024-03-17T08:38:15;101300;;;15.099;48
78843;BME280;70542;53.774;-0.352;2024-03-17T08:44:28;101300;;;14.901;48
78843;BME280;70542;53.774;-0.352;2024-03-17T08:50:50;101290;;;14.174;50
78843;BME280;70542;53.774;-0.352;2024-03-17T08:56:48;101300;;;13.582;52
78843;BME280;70542;53.774;-0.352;2024-03-17T09:02:45;101290;;;14.68;49
78843;BME280;70542;53.774;-0.352;2024-03-17T09:08:54;101290;;;15.092;48
78843;BME280;70542;53.774;-0.352;2024-03-17T09:15:03;101290;;;15.384;48
78843;BME280;70542;53.774;-0.352;2024-03-17T09:21:01;101290;;;14.83;48
78843;BME280;70542;53.774;-0.352;2024-03-17T09:26:58;101280;;;15.233;48
78843;BME280;70542;53.774;-0.352;2024-03-17T09:33:07;101280;;;16.091;47
78843;BME280;70542;53.774;-0.352;2024-03-17T09:39:04;101280;;;15.516;47
78843;BME280;70542;53.774;-0.352;2024-03-17T09:45:15;101280;;;15.756;47
78843;BME280;70542;53.774;-0.352;2024-03-17T09:51:18;101280;;;15.811;48
78843;BME280;70542;53.774;-0.352;2024-03-17T09:57:17;101270;;;16.351;47
78843;BME280;70542;53.774;-0.352;2024-03-17T10:03:39;101270;;;16.047;47
78843;BME280;70542;53.774;-0.352;2024-03-17T10:09:37;101270;;;15.998;47
78843;BME280;70542;53.774;-0.352;2024-03-17T10:15:48;101270;;;17.09;46
78843;BME280;70542;53.774;-0.352;2024-03-17T10:21:46;101270;;;15.505;49
78843;BME280;70542;53.774;-0.352;2024-03-17T10:27:44;101270;;;16.215;48
78843;BME280;70542;53.774;-0.352;2024-03-17T10:34:15;101260;;;16.314;48
78843;BME280;70542;53.774;-0.352;2024-03-17T10:40:24;101260;;;16.02;48
78843;BME280;70542;53.774;-0.352;2024-03-17T10:46:34;101260;;;15.771;49
78843;BME280;70542;53.774;-0.352;2024-03-17T10:52:33;101250;;;16.393;48
78843;BME280;70542;53.774;-0.352;2024-03-17T10:58:44;101260;;;15.592;50
78843;BME280;70542;53.774;-0.352;2024-03-17T11:04:41;101250;;;15.71;49
78843;BME280;70542;53.774;-0.352;2024-03-17T11:10:39;101240;;;16.612;48
78843;BME280;70542;53.774;-0.352;2024-03-17T11:16:52;101250;;;17.057;47
78843;BME280;70542;53.774;-0.352;2024-03-17T11:22:51;101250;;;17.323;47
78843;BME280;70542;53.774;-0.352;2024-03-17T11:28:51;101250;;;16.994;47
78843;BME280;70542;53.774;-0.352;2024-03-17T11:47:35;101230;;;17.641;46
78843;BME280;70542;53.774;-0.352;2024-03-17T11:53:36;101220;;;17.215;46
78843;BME280;70542;53.774;-0.352;2024-03-17T11:59:33;101220;;;17.37;46
78843;BME280;70542;53.774;-0.352;2024-03-17T12:05:43;101220;;;17.786;46
78843;BME280;70542;53.774;-0.352;2024-03-17T12:11:59;101220;;;17.87;46
78843;BME280;70542;53.774;-0.352;2024-03-17T12:24:17;101220;;;16.798;47
78843;BME280;70542;53.774;-0.352;2024-03-17T12:30:15;101220;;;16.511;48
78843;BME280;70542;53.774;-0.352;2024-03-17T12:36:12;101210;;;16.525;48
78843;BME280;70542;53.774;-0.352;2024-03-17T12:42:24;101220;;;16.734;48
78843;BME280;70542;53.774;-0.352;2024-03-17T12:48:21;101210;;;16.486;48
78843;BME280;70542;53.774;-0.352;2024-03-17T12:54:23;101210;;;16.872;48
78843;BME280;70542;53.774;-0.352;2024-03-17T13:00:32;101200;;;17.434;47
78843;BME280;70542;53.774;-0.352;2024-03-17T13:06:36;101200;;;17.597;46
78843;BME280;70542;53.774;-0.352;2024-03-17T13:12:45;101200;;;17.443;46
78843;BME280;70542;53.774;-0.352;2024-03-17T13:18:43;101190;;;17.851;46
78843;BME280;70542;53.774;-0.352;2024-03-17T13:25:00;101180;;;18.514;45
78843;BME280;70542;53.774;-0.352;2024-03-17T13:31:13;101180;;;19.043;43
78843;BME280;70542;53.774;-0.352;2024-03-17T13:37:27;101170;;;18.726;44
78843;BME280;70542;53.774;-0.352;2024-03-17T13:43:24;101170;;;19.129;43
78843;BME280;70542;53.774;-0.352;2024-03-17T13:50:18;101170;;;18.572;44
78843;BME280;70542;53.774;-0.352;2024-03-17T13:56:21;101160;;;18.0;45
78843;BME280;70542;53.774;-0.352;2024-03-17T14:02:21;101150;;;18.728;45
78843;BME280;70542;53.774;-0.352;2024-03-17T14:08:18;101140;;;18.007;46
78843;BME280;70542;53.774;-0.352;2024-03-17T14:14:25;101130;;;18.72;45
78843;BME280;70542;53.774;-0.352;2024-03-17T14:20:34;101120;;;18.658;45
78843;BME280;70542;53.774;-0.352;2024-03-17T14:26:36;101120;;;20.224;42
78843;BME280;70542;53.774;-0.352;2024-03-17T14:32:45;101120;;;19.973;41
78843;BME280;70542;53.774;-0.352;2024-03-17T14:38:55;101110;;;19.271;44
78843;BME280;70542;53.774;-0.352;2024-03-17T14:44:57;101100;;;18.481;45
78843;BME280;70542;53.774;-0.352;2024-03-17T14:51:06;101090;;;18.798;44
78843;BME280;70542;53.774;-0.352;2024-03-17T14:57:08;101100;;;19.348;43
78843;BME280;70542;53.774;-0.352;2024-03-17T15:03:06;101100;;;19.873;41
78843;BME280;70542;53.774;-0.352;2024-03-17T15:09:11;101100;;;19.726;42
78843;BME280;70542;53.774;-0.352;2024-03-17T15:15:12;101090;;;19.659;41
78843;BME280;70542;53.774;-0.352;2024-03-17T15:21:12;101090;;;19.14;42
78843;BME280;70542;53.774;-0.352;2024-03-17T15:27:28;101080;;;18.971;42
78843;BME280;70542;53.774;-0.352;2024-03-17T15:33:39;101080;;;19.651;41
78843;BME280;70542;53.774;-0.352;2024-03-17T15:39:52;101080;;;19.303;41
78843;BME280;70542;53.774;-0.352;2024-03-17T15:45:38;101060;;;18.71;42
78843;BME280;70542;53.774;-0.352;2024-03-17T15:52:04;101060;;;18.179;42
78843;BME280;70542;53.774;-0.352;2024-03-17T15:58:17;101060;;;19.761;39
78843;BME280;70542;53.774;-0.352;2024-03-17T16:04:28;101060;;;18.999;40
78843;BME280;70542;53.774;-0.352;2024-03-17T16:10:37;101050;;;19.536;39
78843;BME280;70542;53.774;-0.352;2024-03-17T16:16:37;101040;;;19.952;38
78843;BME280;70542;53.774;-0.352;2024-03-17T16:22:36;101050;;;19.213;39
78843;BME280;70542;53.774;-0.352;2024-03-17T16:28:45;101050;;;19.862;38
78843;BME280;70542;53.774;-0.352;2024-03-17T16:34:43;101050;;;19.379;39
78843;BME280;70542;53.774;-0.352;2024-03-17T16:40:41;101040;;;19.89;38
78843;BME280;70542;53.774;-0.352;2024-03-17T16:53:16;101040;;;18.54;40
78843;BME280;70542;53.774;-0.352;2024-03-17T16:59:14;101040;;;18.906;39
78843;BME280;70542;53.774;-0.352;2024-03-17T17:11:59;101040;;;19.012;39
78843;BME280;70542;53.774;-0.352;2024-03-17T17:17:56;101040;;;19.222;38
78843;BME280;70542;53.774;-0.352;2024-03-17T17:23:53;101040;;;19.047;39
78843;BME280;70542;53.774;-0.352;2024-03-17T17:29:51;101040;;;18.797;39
78843;BME280;70542;53.774;-0.352;2024-03-17T17:36:04;101030;;;19.035;39
78843;BME280;70542;53.774;-0.352;2024-03-17T17:42:02;101040;;;19.061;39
78843;BME280;70542;53.774;-0.352;2024-03-17T17:48:11;101050;;;19.223;39
78843;BME280;70542;53.774;-0.352;2024-03-17T17:54:19;101050;;;18.36;40
78843;BME280;70542;53.774;-0.352;2024-03-17T18:00:25;101040;;;18.889;40
78843;BME280;70542;53.774;-0.352;2024-03-17T18:06:24;101040;;;18.358;41
78843;BME280;70542;53.774;-0.352;2024-03-17T18:12:21;101040;;;18.605;41
78843;BME280;70542;53.774;-0.352;2024-03-17T18:18:24;101040;;;18.149;42
78843;BME280;70542;53.774;-0.352;2024-03-17T18:24:21;101050;;;18.305;41
78843;BME280;70542;53.774;-0.352;2024-03-17T18:30:22;101050;;;18.551;40
78843;BME280;70542;53.774;-0.352;2024-03-17T18:36:24;101050;;;18.796;40
78843;BME280;70542;53.774;-0.352;2024-03-17T18:42:26;101050;;;18.521;40
78843;BME280;70542;53.774;-0.352;2024-03-17T18:48:24;101060;;;18.845;40
78843;BME280;70542;53.774;-0.352;2024-03-17T18:54:21;101060;;;18.845;40
78843;BME280;70542;53.774;-0.352;2024-03-17T19:00:35;101070;;;17.806;41
78843;BME280;70542;53.774;-0.352;2024-03-17T19:06:44;101070;;;18.327;40
78843;BME280;70542;53.774;-0.352;2024-03-17T19:12:53;101070;;;17.838;41
78843;BME280;70542;53.774;-0.352;2024-03-17T19:19:04;101070;;;17.949;41
78843;BME280;70542;53.774;-0.352;2024-03-17T19:25:20;101070;;;17.878;41
78843;BME280;70542;53.774;-0.352;2024-03-17T19:31:26;101070;;;17.726;42
78843;BME280;70542;53.774;-0.352;2024-03-17T19:37:29;101070;;;17.027;44
78843;BME280;70542;53.774;-0.352;2024-03-17T19:43:32;101070;;;17.337;43
78843;BME280;70542;53.774;-0.352;2024-03-17T19:49:33;101070;;;16.111;45
78843;BME280;70542;53.774;-0.352;2024-03-17T19:55:31;101080;;;17.553;43
78843;BME280;70542;53.774;-0.352;2024-03-17T20:01:29;101090;;;16.06;45
78843;BME280;70542;53.774;-0.352;2024-03-17T20:07:26;101090;;;12.161;54
78843;BME280;70542;53.774;-0.352;2024-03-17T20:13:24;101100;;;12.664;52
78843;BME280;70542;53.774;-0.352;2024-03-17T20:19:34;101100;;;11.842;51
78843;BME280;70542;53.774;-0.352;2024-03-17T20:25:31;101110;;;12.039;50
78843;BME280;70542;53.774;-0.352;2024-03-17T20:31:40;101110;;;11.477;51
78843;BME280;70542;53.774;-0.352;2024-03-17T20:37:37;101120;;;10.081;52
78843;BME280;70542;53.774;-0.352;2024-03-17T20:43:51;101120;;;10.914;50
78843;BME280;70542;53.774;-0.352;2024-03-17T20:50:17;101130;;;10.337;51
78843;BME280;70542;53.774;-0.352;2024-03-17T20:56:42;101130;;;11.773;47
78843;BME280;70542;53.774;-0.352;2024-03-17T21:02:53;101130;;;12.579;46
78843;BME280;70542;53.774;-0.352;2024-03-17T21:09:06;101140;;;12.583;45
78843;BME280;70542;53.774;-0.352;2024-03-17T21:15:17;101130;;;13.041;44
78843;BME280;70542;53.774;-0.352;2024-03-17T21:21:22;101140;;;11.655;47
78843;BME280;70542;53.774;-0.352;2024-03-17T21:27:46;101150;;;12.907;46
78843;BME280;70542;53.774;-0.352;2024-03-17T21:33:52;101150;;;13.164;46
78843;BME280;70542;53.774;-0.352;2024-03-17T21:40:11;101140;;;13.125;46
78843;BME280;70542;53.774;-0.352;2024-03-17T21:46:12;101150;;;12.352;47
78843;BME280;70542;53.774;-0.352;2024-03-17T21:52:29;101150;;;12.346;46
78843;BME280;70542;53.774;-0.352;2024-03-17T21:58:50;101160;;;12.289;45
78843;BME280;70542;53.774;-0.352;2024-03-17T22:05:13;101160;;;13.82;43
78843;BME280;70542;53.774;-0.352;2024-03-17T22:11:20;101150;;;13.656;42
78843;BME280;70542;53.774;-0.352;2024-03-17T22:17:17;101150;;;13.912;41
78843;BME280;70542;53.774;-0.352;2024-03-17T22:23:31;101150;;;15.03;39
78843;BME280;70542;53.774;-0.352;2024-03-17T22:30:09;101150;;;15.138;38
78843;BME280;70542;53.774;-0.352;2024-03-17T22:36:12;101150;;;15.073;38
78843;BME280;70542;53.774;-0.352;2024-03-17T22:42:10;101150;;;15.674;38
78843;BME280;70542;53.774;-0.352;2024-03-17T22:48:34;101150;;;15.501;38
78843;BME280;70542;53.774;-0.352;2024-03-17T22:54:32;101160;;;13.177;40
78843;BME280;70542;53.774;-0.352;2024-03-17T23:00:42;101150;;;14.092;39
78843;BME280;70542;53.774;-0.352;2024-03-17T23:06:50;101150;;;13.956;39
78843;BME280;70542;53.774;-0.352;2024-03-17T23:13:07;101140;;;14.549;38
78843;BME280;70542;53.774;-0.352;2024-03-17T23:19:15;101140;;;14.793;38
78843;BME280;70542;53.774;-0.352;2024-03-17T23:25:45;101140;;;14.339;38
78843;BME280;70542;53.774;-0.352;2024-03-17T23:31:55;101140;;;14.302;37
78843;BME280;70542;53.774;-0.352;2024-03-17T23:38:18;101140;;;14.077;37
78843;BME280;70542;53.774;-0.352;2024-03-17T23:44:27;101140;;;14.788;36
78843;BME280;70542;53.774;-0.352;2024-03-17T23:50:39;101140;;;14.489;36
78843;BME280;70542;53.774;-0.352;2024-03-17T23:56:53;101130;;;14.559;36
